Time;durP1;ratioP1;P1;durP2;ratioP2;P2;SDS_P1;SDS_P2;PMS_P1;PMS_P2;Temp;Humidity;BMP_temperature;BMP_pressure;BME280_temperature;BME280_humidity;BME280_pressure;Samples;Min_cycle;Max_cycle;Signal;HPM_P1;HPM_P2
2023/01/12 00:01:46;;;;;;;10.77;2.00;;;8.20;99.90;;;;;;5123031;27;20397;-81
2023/01/12 00:04:13;;;;;;;12.10;2.22;;;8.20;99.90;;;;;;5142469;27;20035;-80
2023/01/12 00:06:39;;;;;;;17.00;2.05;;;8.20;99.90;;;;;;5119304;27;20046;-81
2023/01/12 00:09:06;;;;;;;24.27;2.83;;;8.20;99.90;;;;;;5121125;27;20057;-80
2023/01/12 00:11:32;;;;;;;13.43;2.83;;;8.20;99.90;;;;;;5121375;27;20370;-81
2023/01/12 00:13:58;;;;;;;18.25;2.35;;;8.20;99.90;;;;;;5142242;27;20041;-80
2023/01/12 00:16:34;;;;;;;12.45;1.85;;;8.10;99.90;;;;;;5138271;27;20022;-80
2023/01/12 00:19:08;;;;;;;11.55;2.33;;;8.20;99.90;;;;;;5144458;27;20163;-80
2023/01/12 00:24:19;;;;;;;16.83;2.65;;;8.20;99.90;;;;;;5121737;27;20123;-80
2023/01/12 00:26:46;;;;;;;15.50;2.58;;;8.20;99.90;;;;;;5119078;27;20039;-80
2023/01/12 00:29:11;;;;;;;13.65;2.40;;;8.30;99.90;;;;;;5116020;27;20070;-80
2023/01/12 00:31:37;;;;;;;20.02;2.95;;;8.30;99.90;;;;;;5116520;27;20615;-80
2023/01/12 00:34:03;;;;;;;18.77;3.08;;;8.30;99.90;;;;;;5119655;27;20046;-80
2023/01/12 00:36:28;;;;;;;18.17;2.83;;;8.30;99.90;;;;;;5140638;27;20030;-80
2023/01/12 00:38:54;;;;;;;15.05;2.60;;;8.30;99.90;;;;;;5139832;27;20035;-80
2023/01/12 00:46:49;;;;;;;;;;;8.20;99.90;;;;;;5131046;27;20034;-80
2023/01/12 00:49:14;;;;;;;25.10;3.63;;;8.20;99.90;;;;;;5133956;27;20015;-80
2023/01/12 00:51:40;;;;;;;16.33;2.80;;;9.00;99.90;;;;;;5122462;27;20489;-80
2023/01/12 00:54:07;;;;;;;18.67;4.20;;;8.10;99.90;;;;;;5137825;27;20128;-80
2023/01/12 00:56:37;;;;;;;20.38;2.63;;;8.10;99.90;;;;;;5122126;27;20086;-80
2023/01/12 00:59:03;;;;;;;17.80;2.65;;;8.10;99.90;;;;;;5115049;27;20113;-80
2023/01/12 01:01:31;;;;;;;11.25;1.70;;;8.10;99.90;;;;;;5115533;27;20076;-80
2023/01/12 01:03:56;;;;;;;12.70;2.03;;;8.20;99.90;;;;;;5117110;27;20126;-80
2023/01/12 01:06:22;;;;;;;11.50;1.90;;;8.20;99.90;;;;;;5119433;27;20129;-80
2023/01/12 01:08:48;;;;;;;15.65;2.15;;;8.20;99.90;;;;;;5107230;27;20498;-80
2023/01/12 01:11:14;;;;;;;12.45;2.00;;;8.20;99.90;;;;;;5100284;27;20127;-80
2023/01/12 01:13:42;;;;;;;11.73;2.22;;;8.20;99.90;;;;;;5117047;28;20035;-80
2023/01/12 01:16:10;;;;;;;13.82;2.58;;;8.10;99.90;;;;;;5117920;27;20048;-80
2023/01/12 01:18:36;;;;;;;19.02;3.20;;;8.10;99.90;;;;;;5135724;27;20054;-80
2023/01/12 01:21:01;;;;;;;11.60;1.95;;;8.10;99.90;;;;;;5139217;27;20035;-80
2023/01/12 01:23:28;;;;;;;24.65;3.40;;;8.00;99.90;;;;;;5141887;27;20035;-81
2023/01/12 01:25:54;;;;;;;22.52;3.33;;;8.10;99.90;;;;;;5124482;27;20035;-79
2023/01/12 01:28:21;;;;;;;21.23;2.90;;;8.10;99.90;;;;;;5151805;27;20034;-80
2023/01/12 01:30:49;;;;;;;19.02;3.92;;;8.10;99.90;;;;;;5119780;27;20054;-80
2023/01/12 01:33:15;;;;;;;21.55;3.10;;;8.10;99.90;;;;;;5124172;27;20035;-80
2023/01/12 01:35:41;;;;;;;16.15;2.85;;;8.10;99.90;;;;;;5137741;27;20066;-81
2023/01/12 01:38:06;;;;;;;15.63;2.63;;;8.10;99.90;;;;;;5122748;27;20039;-81
2023/01/12 01:40:32;;;;;;;14.98;2.97;;;8.00;99.90;;;;;;5098564;27;20039;-80
2023/01/12 01:42:58;;;;;;;19.95;2.58;;;8.00;99.90;;;;;;5132388;27;20039;-80
2023/01/12 01:45:25;;;;;;;17.35;3.60;;;8.00;99.90;;;;;;5116565;27;20039;-80
2023/01/12 01:47:56;;;;;;;14.50;2.70;;;8.00;99.90;;;;;;5120139;27;20088;-80
2023/01/12 01:50:47;;;;;;;18.35;3.00;;;8.10;99.90;;;;;;5126558;27;20047;-80
2023/01/12 01:53:18;;;;;;;21.55;2.88;;;8.20;99.90;;;;;;5121839;27;20062;-80
2023/01/12 01:55:48;;;;;;;20.40;3.30;;;8.10;99.90;;;;;;5146525;27;20066;-80
2023/01/12 01:58:52;;;;;;;13.57;2.40;;;8.10;99.90;;;;;;5122054;27;20027;-81
2023/01/12 02:01:17;;;;;;;16.42;2.58;;;8.20;99.90;;;;;;5136807;27;20058;-80
2023/01/12 02:03:44;;;;;;;19.50;2.50;;;8.20;99.90;;;;;;5139938;27;20046;-80
2023/01/12 02:06:10;;;;;;;14.02;2.42;;;8.20;99.90;;;;;;5141908;27;20045;-80
2023/01/12 02:09:15;;;;;;;18.15;2.50;;;8.20;99.90;;;;;;5138500;27;20035;-80
2023/01/12 02:17:32;;;;;;;23.05;3.53;;;8.20;99.90;;;;;;5127290;27;20045;-80
2023/01/12 02:20:19;;;;;;;15.70;3.30;;;8.10;99.90;;;;;;5144391;27;20134;-80
2023/01/12 02:23:06;;;;;;;15.73;2.90;;;8.20;99.90;;;;;;5092878;27;20063;-80
2023/01/12 02:25:50;;;;;;;19.92;2.85;;;8.20;99.90;;;;;;5118306;27;20096;-80
2023/01/12 02:28:54;;;;;;;20.65;2.85;;;8.20;99.90;;;;;;5120473;27;20057;-80
2023/01/12 02:31:28;;;;;;;24.80;3.72;;;8.30;99.90;;;;;;5110189;27;20051;-80
2023/01/12 02:34:33;;;;;;;19.07;2.70;;;8.30;99.90;;;;;;5142236;27;20035;-80
2023/01/12 02:37:22;;;;;;;20.55;3.42;;;8.30;99.90;;;;;;5134657;27;20785;-79
2023/01/12 02:40:00;;;;;;;22.33;3.30;;;8.30;99.90;;;;;;5106724;27;20055;-80
2023/01/12 02:42:41;;;;;;;21.00;2.83;;;8.30;99.90;;;;;;5118297;27;20039;-80
2023/01/12 02:45:35;;;;;;;14.88;3.15;;;8.30;99.90;;;;;;5124076;27;20118;-80
2023/01/12 02:48:13;;;;;;;17.98;2.90;;;8.30;99.90;;;;;;5119296;27;20043;-80
2023/01/12 02:50:56;;;;;;;17.00;3.33;;;8.30;99.90;;;;;;5115392;27;20054;-80
2023/01/12 02:53:42;;;;;;;19.35;3.83;;;8.30;99.90;;;;;;5116856;27;20078;-80
2023/01/12 02:56:12;;;;;;;19.65;3.90;;;8.30;99.90;;;;;;5095723;27;20038;-80
2023/01/12 02:58:44;;;;;;;16.77;2.88;;;8.30;99.90;;;;;;5124977;27;20039;-80
2023/01/12 03:01:11;;;;;;;14.57;2.70;;;8.30;99.90;;;;;;5136790;27;20035;-80
2023/01/12 03:03:38;;;;;;;20.48;3.80;;;8.50;99.90;;;;;;5117525;27;20039;-81
2023/01/12 03:06:05;;;;;;;17.42;3.45;;;8.30;99.90;;;;;;5119018;27;20038;-80
2023/01/12 03:08:35;;;;;;;17.40;3.40;;;8.30;99.90;;;;;;5121792;27;20049;-80
2023/01/12 03:11:13;;;;;;;20.58;3.63;;;8.30;99.90;;;;;;5122562;27;20140;-80
2023/01/12 03:13:53;;;;;;;18.88;4.15;;;8.30;99.90;;;;;;5122107;27;20516;-81
2023/01/12 03:16:25;;;;;;;22.48;3.50;;;8.30;99.90;;;;;;5117376;27;20038;-80
2023/01/12 03:19:17;;;;;;;20.73;3.42;;;8.30;99.90;;;;;;5123013;27;20070;-80
2023/01/12 03:21:49;;;;;;;19.83;4.03;;;8.30;99.90;;;;;;5121047;27;20051;-80
2023/01/12 03:24:22;;;;;;;16.77;3.35;;;8.30;99.90;;;;;;5125807;27;20121;-80
2023/01/12 03:26:51;;;;;;;17.00;3.10;;;8.30;99.90;;;;;;5136295;27;20035;-80
2023/01/12 03:29:30;;;;;;;19.67;4.20;;;8.40;99.90;;;;;;5099361;27;20027;-81
2023/01/12 03:31:56;;;;;;;14.43;3.40;;;8.30;99.90;;;;;;5122540;27;20047;-81
2023/01/12 03:34:22;;;;;;;22.05;3.83;;;8.40;99.90;;;;;;5134678;27;20035;-80
2023/01/12 03:37:01;;;;;;;19.98;3.15;;;8.40;99.90;;;;;;5119719;27;20039;-81
2023/01/12 03:39:32;;;;;;;15.07;3.30;;;8.40;99.90;;;;;;5141987;27;20054;-80
2023/01/12 03:42:08;;;;;;;13.75;3.17;;;8.40;99.90;;;;;;5105403;27;20111;-80
2023/01/12 03:45:04;;;;;;;14.55;2.97;;;8.40;99.90;;;;;;5136059;27;20393;-80
2023/01/12 03:47:32;;;;;;;12.07;2.53;;;8.50;99.90;;;;;;5117211;27;20047;-80
2023/01/12 03:50:00;;;;;;;19.13;3.03;;;8.50;99.90;;;;;;5112509;27;20051;-80
2023/01/12 03:52:28;;;;;;;15.85;3.83;;;8.50;99.90;;;;;;5122644;27;20076;-80
2023/01/12 03:54:55;;;;;;;16.02;2.85;;;8.50;99.90;;;;;;5115901;27;20039;-81
2023/01/12 03:57:21;;;;;;;15.52;2.58;;;8.60;99.90;;;;;;5116531;27;20312;-81
2023/01/12 03:59:47;;;;;;;19.23;3.08;;;8.50;99.90;;;;;;5105772;27;20766;-80
2023/01/12 04:02:13;;;;;;;14.75;2.63;;;8.60;99.90;;;;;;5115659;27;20062;-80
2023/01/12 04:04:39;;;;;;;14.88;3.10;;;8.60;99.90;;;;;;5114149;27;20118;-80
2023/01/12 04:07:05;;;;;;;14.50;3.10;;;8.60;99.90;;;;;;5111842;27;20044;-80
2023/01/12 04:09:30;;;;;;;16.67;2.47;;;8.60;99.90;;;;;;5113470;27;20382;-80
2023/01/12 04:12:11;;;;;;;13.50;2.92;;;8.60;99.90;;;;;;5115653;27;20537;-80
2023/01/12 04:14:42;;;;;;;11.18;2.63;;;8.60;99.90;;;;;;5114827;27;20039;-80
2023/01/12 04:17:13;;;;;;;9.45;2.50;;;8.60;99.90;;;;;;5105041;28;20055;-81
2023/01/12 04:19:39;;;;;;;8.82;2.30;;;8.60;99.90;;;;;;5122600;27;20046;-81
2023/01/12 04:24:50;;;;;;;13.27;2.33;;;8.60;99.90;;;;;;5119119;27;20122;-80
2023/01/12 04:27:17;;;;;;;14.55;2.50;;;8.60;99.90;;;;;;5116610;27;20127;-81
2023/01/12 04:29:43;;;;;;;9.93;1.75;;;8.70;99.90;;;;;;5123864;27;20126;-81
2023/01/12 04:32:09;;;;;;;12.85;2.10;;;8.60;99.90;;;;;;5121450;27;20031;-81
2023/01/12 04:34:35;;;;;;;12.55;1.98;;;8.60;99.90;;;;;;5116817;27;20093;-80
2023/01/12 04:37:02;;;;;;;9.25;2.22;;;8.60;99.90;;;;;;5107652;27;20054;-80
2023/01/12 04:39:28;;;;;;;12.05;2.40;;;8.60;99.90;;;;;;5123733;27;20031;-80
2023/01/12 04:41:53;;;;;;;5.65;1.88;;;8.60;99.90;;;;;;5115559;27;20054;-80
2023/01/12 04:44:19;;;;;;;13.05;2.28;;;8.60;99.90;;;;;;5117325;27;20097;-80
2023/01/12 04:46:46;;;;;;;12.82;2.58;;;8.50;99.90;;;;;;5107794;27;20043;-79
2023/01/12 04:49:12;;;;;;;9.93;2.22;;;8.60;99.90;;;;;;5120681;27;20058;-80
2023/01/12 04:51:38;;;;;;;9.75;2.10;;;8.60;99.90;;;;;;5107026;27;20039;-80
2023/01/12 04:54:03;;;;;;;8.23;1.92;;;8.50;99.90;;;;;;5117293;27;20394;-80
2023/01/12 04:56:30;;;;;;;6.90;1.70;;;8.50;99.90;;;;;;5119062;27;20043;-80
2023/01/12 04:58:58;;;;;;;6.20;1.48;;;8.50;99.90;;;;;;5116994;28;20047;-80
2023/01/12 05:01:26;;;;;;;6.95;1.48;;;8.50;99.90;;;;;;5097653;28;20036;-80
2023/01/12 05:03:54;;;;;;;5.35;1.45;;;8.50;99.90;;;;;;5111115;27;20410;-81
2023/01/12 05:06:21;;;;;;;9.15;1.33;;;8.50;99.90;;;;;;5107731;28;20044;-81
2023/01/12 05:11:31;;;;;;;6.73;1.90;;;8.50;99.90;;;;;;5114958;28;20035;-80
2023/01/12 05:13:56;;;;;;;6.75;1.45;;;8.50;99.90;;;;;;5113107;28;20342;-81
2023/01/12 05:16:23;;;;;;;7.30;1.55;;;8.40;99.90;;;;;;5120034;28;20035;-80
2023/01/12 05:18:51;;;;;;;5.65;1.30;;;8.40;99.90;;;;;;5108340;28;20031;-80
2023/01/12 05:21:17;;;;;;;4.40;1.10;;;8.50;99.90;;;;;;5108415;28;20039;-79
2023/01/12 05:23:46;;;;;;;6.07;1.20;;;8.40;99.90;;;;;;5108646;28;20035;-80
2023/01/12 05:26:11;;;;;;;8.48;1.95;;;8.40;99.90;;;;;;5122695;28;20059;-80
2023/01/12 05:28:37;;;;;;;4.35;1.40;;;8.40;99.90;;;;;;5116168;28;20126;-81
2023/01/12 05:31:06;;;;;;;8.15;1.50;;;8.40;99.90;;;;;;5113722;28;20035;-80
2023/01/12 05:33:32;;;;;;;5.10;1.40;;;8.40;99.90;;;;;;5106569;28;20050;-81
2023/01/12 05:35:58;;;;;;;3.50;0.85;;;8.40;99.90;;;;;;5119005;28;20043;-80
2023/01/12 05:38:24;;;;;;;4.97;1.33;;;8.30;99.90;;;;;;5118414;28;20040;-80
2023/01/12 05:40:49;;;;;;;6.50;1.17;;;8.30;99.90;;;;;;5121760;28;20425;-80
2023/01/12 05:46:04;;;;;;;6.95;1.92;;;8.30;99.90;;;;;;5108881;28;20039;-81
2023/01/12 05:48:31;;;;;;;6.97;1.95;;;8.30;99.90;;;;;;5118536;28;20055;-81
2023/01/12 05:51:01;;;;;;;6.60;1.98;;;8.60;99.90;;;;;;5091709;28;20114;-81
2023/01/12 05:53:27;;;;;;;6.18;1.65;;;8.30;99.90;;;;;;5108980;28;20032;-81
2023/01/12 05:55:53;;;;;;;6.82;1.13;;;8.30;99.90;;;;;;5114719;28;20043;-80
2023/01/12 05:58:19;;;;;;;6.68;1.75;;;8.30;99.90;;;;;;5120029;28;20031;-80
2023/01/12 06:00:44;;;;;;;4.93;1.30;;;8.40;99.90;;;;;;5116733;28;20074;-81
2023/01/12 06:03:10;;;;;;;6.40;2.10;;;8.60;99.90;;;;;;5107432;28;20080;-80
2023/01/12 06:05:35;;;;;;;5.65;1.83;;;8.30;99.90;;;;;;5119917;27;20130;-80
2023/01/12 06:08:01;;;;;;;6.05;1.17;;;8.30;99.90;;;;;;5114468;27;20102;-80
2023/01/12 06:10:27;;;;;;;5.65;2.00;;;8.30;99.90;;;;;;5117573;27;20039;-80
2023/01/12 06:15:37;;;;;;;3.55;0.90;;;8.30;99.90;;;;;;5121033;27;20039;-80
2023/01/12 06:18:03;;;;;;;3.55;1.10;;;8.30;99.90;;;;;;5111250;27;20038;-80
2023/01/12 06:20:28;;;;;;;4.25;1.23;;;8.40;99.90;;;;;;5121098;27;20071;-79
2023/01/12 06:22:54;;;;;;;5.32;1.20;;;8.40;99.90;;;;;;5112872;27;20480;-80
2023/01/12 06:25:20;;;;;;;2.67;1.35;;;8.40;99.90;;;;;;5116415;27;20077;-81
2023/01/12 06:27:45;;;;;;;3.40;0.90;;;8.40;99.90;;;;;;5114584;27;20067;-81
2023/01/12 06:30:11;;;;;;;5.07;0.88;;;8.40;99.90;;;;;;5110367;27;20047;-81
2023/01/12 06:32:37;;;;;;;6.22;0.80;;;8.40;99.90;;;;;;5115101;27;20541;-80
2023/01/12 06:35:03;;;;;;;3.40;0.70;;;8.40;99.90;;;;;;5123414;27;20042;-81
2023/01/12 06:37:29;;;;;;;2.40;0.75;;;8.40;99.90;;;;;;5120766;27;20036;-81
2023/01/12 06:39:56;;;;;;;3.65;0.90;;;8.50;99.90;;;;;;5121631;27;20394;-81
2023/01/12 06:42:28;;;;;;;2.92;0.50;;;8.50;99.90;;;;;;5117275;27;20043;-80
2023/01/12 06:44:55;;;;;;;1.73;0.63;;;8.50;99.90;;;;;;5115289;27;20043;-81
2023/01/12 06:47:21;;;;;;;1.40;0.60;;;8.60;99.90;;;;;;5121346;27;20485;-80
2023/01/12 06:49:46;;;;;;;2.20;0.40;;;8.60;99.90;;;;;;5117651;27;20095;-81
2023/01/12 06:52:12;;;;;;;1.33;0.43;;;8.60;99.90;;;;;;5112428;27;20074;-80
2023/01/12 06:54:38;;;;;;;2.00;0.60;;;8.70;99.90;;;;;;5136271;27;20050;-81
2023/01/12 06:57:03;;;;;;;1.60;0.70;;;8.70;99.90;;;;;;5116541;27;20120;-81
2023/01/12 06:59:29;;;;;;;1.98;0.47;;;8.70;99.90;;;;;;5140310;27;20042;-81
2023/01/12 07:01:55;;;;;;;4.47;0.75;;;8.80;99.90;;;;;;5135605;27;21493;-80
2023/01/12 07:04:20;;;;;;;2.85;0.70;;;8.80;99.90;;;;;;5110826;27;20042;-80
2023/01/12 07:06:47;;;;;;;3.38;0.60;;;8.80;99.90;;;;;;5124003;27;20051;-82
2023/01/12 07:09:13;;;;;;;8.32;2.53;;;8.80;99.90;;;;;;5120923;27;20091;-80
2023/01/12 07:11:38;;;;;;;2.58;0.75;;;8.80;99.90;;;;;;5134168;27;20063;-79
2023/01/12 07:14:04;;;;;;;2.20;0.52;;;8.90;99.90;;;;;;5124102;27;20038;-80
2023/01/12 07:16:29;;;;;;;4.80;1.30;;;9.20;99.90;;;;;;5111508;27;20477;-80
2023/01/12 07:18:55;;;;;;;3.35;0.88;;;9.20;99.90;;;;;;5136918;27;20035;-80
2023/01/12 07:21:21;;;;;;;1.75;0.70;;;9.80;99.90;;;;;;5122176;27;20373;-80
2023/01/12 07:23:46;;;;;;;3.25;0.70;;;8.90;99.90;;;;;;5119442;27;20039;-80
2023/01/12 07:26:12;;;;;;;2.28;0.60;;;9.00;99.90;;;;;;5113449;27;20035;-81
2023/01/12 07:28:38;;;;;;;2.95;0.70;;;9.00;99.90;;;;;;5142317;27;20118;-80
2023/01/12 07:31:05;;;;;;;2.55;0.70;;;9.00;99.90;;;;;;5141114;27;20035;-80
2023/01/12 07:33:31;;;;;;;2.55;0.70;;;9.10;99.90;;;;;;5109582;27;20083;-80
2023/01/12 07:36:01;;;;;;;2.60;0.93;;;9.10;99.90;;;;;;5112849;27;20035;-80
2023/01/12 07:38:30;;;;;;;3.40;0.68;;;9.10;99.90;;;;;;5106948;27;20039;-80
2023/01/12 07:41:00;;;;;;;2.13;0.63;;;10.00;99.90;;;;;;5106524;27;20042;-80
2023/01/12 07:43:26;;;;;;;3.70;0.60;;;9.10;99.90;;;;;;5116395;27;20027;-80
2023/01/12 07:45:54;;;;;;;4.22;0.90;;;9.10;99.90;;;;;;5119254;27;20068;-80
2023/01/12 07:48:21;;;;;;;5.15;1.23;;;9.20;99.90;;;;;;5117064;27;20509;-80
2023/01/12 07:50:46;;;;;;;3.90;0.80;;;9.20;99.90;;;;;;5136701;27;20370;-80
2023/01/12 07:53:12;;;;;;;7.72;1.20;;;9.20;99.90;;;;;;5138742;27;20039;-80
2023/01/12 07:55:38;;;;;;;5.43;1.00;;;9.20;99.90;;;;;;5133161;27;20091;-80
2023/01/12 07:58:06;;;;;;;4.55;1.02;;;9.30;99.90;;;;;;5138601;27;20035;-80
2023/01/12 08:00:32;;;;;;;6.05;1.50;;;9.30;99.90;;;;;;5123487;27;20043;-81
2023/01/12 08:03:15;;;;;;;5.90;1.15;;;9.30;99.90;;;;;;5119365;27;20078;-80
2023/01/12 08:05:41;;;;;;;9.02;1.25;;;9.60;99.90;;;;;;5127684;27;20042;-80
2023/01/12 08:08:07;;;;;;;9.23;1.90;;;9.40;99.90;;;;;;5118646;27;20039;-80
2023/01/12 08:10:32;;;;;;;12.10;1.73;;;9.70;99.90;;;;;;5120433;27;20043;-80
2023/01/12 08:12:58;;;;;;;15.20;2.30;;;9.50;99.90;;;;;;5118630;27;20134;-81
2023/01/12 08:15:25;;;;;;;17.10;2.53;;;9.60;99.90;;;;;;5098229;27;20394;-80
2023/01/12 08:17:53;;;;;;;18.33;2.97;;;9.60;99.90;;;;;;5117148;27;20045;-80
2023/01/12 08:20:24;;;;;;;20.38;3.33;;;9.70;99.90;;;;;;5120165;27;20191;-80
2023/01/12 08:22:54;;;;;;;20.48;3.00;;;9.80;99.90;;;;;;5136635;27;20042;-80
2023/01/12 08:25:26;;;;;;;24.10;4.20;;;9.80;99.90;;;;;;5122486;27;20096;-81
2023/01/12 08:27:54;;;;;;;19.42;3.95;;;9.90;99.90;;;;;;5137971;27;20531;-81
2023/01/12 08:30:22;;;;;;;26.10;4.25;;;9.90;99.90;;;;;;5118367;27;20388;-80
2023/01/12 08:32:49;;;;;;;23.58;4.07;;;10.00;99.90;;;;;;5117030;27;20070;-80
2023/01/12 08:35:18;;;;;;;20.48;4.60;;;10.00;99.90;;;;;;5124639;27;20034;-80
2023/01/12 08:37:44;;;;;;;24.77;3.88;;;10.00;99.90;;;;;;5122390;27;20043;-81
2023/01/12 08:40:12;;;;;;;19.45;4.22;;;10.10;99.90;;;;;;5134936;27;20042;-81
2023/01/12 08:42:37;;;;;;;19.73;3.35;;;10.10;99.90;;;;;;5137825;27;20039;-80
2023/01/12 08:45:06;;;;;;;20.17;3.13;;;10.10;99.90;;;;;;5139267;27;20087;-81
2023/01/12 08:47:32;;;;;;;24.98;3.58;;;10.20;99.90;;;;;;5107367;27;20103;-81
2023/01/12 08:49:59;;;;;;;22.13;3.72;;;10.30;99.90;;;;;;5127903;27;20061;-81
2023/01/12 08:52:28;;;;;;;19.15;3.40;;;10.20;99.90;;;;;;5135445;27;20071;-81
2023/01/12 08:54:54;;;;;;;22.30;3.25;;;10.30;99.90;;;;;;5138975;27;20042;-81
2023/01/12 08:57:20;;;;;;;17.90;3.55;;;10.30;99.90;;;;;;5140858;27;20039;-81
2023/01/12 08:59:45;;;;;;;21.48;3.58;;;10.30;99.90;;;;;;5116979;27;20035;-80
2023/01/12 09:02:13;;;;;;;18.77;3.25;;;10.30;99.90;;;;;;5140199;27;20034;-80
2023/01/12 09:04:39;;;;;;;23.40;3.53;;;10.30;99.90;;;;;;5139177;27;20065;-82
2023/01/12 09:07:06;;;;;;;17.15;3.50;;;10.30;99.90;;;;;;5135260;27;20468;-82
2023/01/12 09:09:32;;;;;;;23.15;4.00;;;10.30;99.90;;;;;;5116303;27;20086;-82
2023/01/12 09:11:57;;;;;;;22.33;3.38;;;10.30;99.90;;;;;;5137885;27;20031;-82
2023/01/12 09:14:24;;;;;;;17.73;3.50;;;10.40;99.90;;;;;;5122424;27;20042;-82
2023/01/12 09:16:50;;;;;;;19.90;4.30;;;10.40;99.90;;;;;;5117699;28;20066;-82
2023/01/12 09:19:16;;;;;;;23.52;3.55;;;10.40;99.90;;;;;;5136995;27;20026;-82
2023/01/12 09:21:42;;;;;;;17.85;3.08;;;10.50;99.90;;;;;;5135583;27;20493;-82
2023/01/12 09:24:08;;;;;;;20.60;3.10;;;10.50;99.90;;;;;;5141109;27;20030;-81
2023/01/12 09:26:39;;;;;;;21.50;4.00;;;10.50;99.90;;;;;;5121919;27;20035;-83
2023/01/12 09:29:06;;;;;;;25.95;3.00;;;10.50;99.90;;;;;;5139553;27;20035;-82
2023/01/12 09:31:33;;;;;;;13.15;3.00;;;10.50;99.90;;;;;;5144088;27;20031;-82
2023/01/12 09:33:59;;;;;;;22.58;3.08;;;10.60;99.90;;;;;;5119031;27;20043;-81
2023/01/12 09:36:27;;;;;;;17.17;2.83;;;10.60;99.90;;;;;;5137550;27;20038;-81
2023/01/12 09:38:53;;;;;;;17.85;3.15;;;10.60;99.90;;;;;;5113185;27;20040;-82
2023/01/12 09:47:15;;;;;;;17.65;2.75;;;10.70;99.90;;;;;;5115740;27;20039;-81
2023/01/12 09:49:48;;;;;;;20.17;3.75;;;10.80;99.90;;;;;;5126386;27;20050;-81
2023/01/12 09:52:29;;;;;;;17.73;3.08;;;10.70;99.90;;;;;;5119421;27;20072;-81
2023/01/12 09:54:54;;;;;;;17.95;3.03;;;10.80;99.90;;;;;;5139037;27;20042;-81
2023/01/12 09:57:41;;;;;;;23.73;3.40;;;10.80;99.90;;;;;;5144973;27;20083;-81
2023/01/12 10:00:18;;;;;;;16.00;2.70;;;10.80;99.90;;;;;;5128731;27;20095;-81
2023/01/12 10:03:06;;;;;;;21.20;3.00;;;10.80;99.90;;;;;;5122845;27;20460;-80
2023/01/12 10:05:40;;;;;;;24.20;3.42;;;10.80;99.90;;;;;;5139097;27;20039;-82
2023/01/12 10:08:12;;;;;;;;;;;10.90;99.90;;;;;;5125852;27;20034;-81
2023/01/12 10:10:41;;;;;;;16.13;3.03;;;11.60;99.90;;;;;;5144925;27;20108;-81
2023/01/12 10:13:12;;;;;;;14.68;2.78;;;10.90;99.90;;;;;;5147899;27;20039;-81
2023/01/12 10:15:53;;;;;;;17.40;3.13;;;10.90;99.90;;;;;;5138185;27;20031;-81
2023/01/12 10:18:22;;;;;;;16.55;3.33;;;10.90;99.90;;;;;;5138426;27;20038;-82
2023/01/12 10:20:48;;;;;;;17.92;3.00;;;11.00;99.90;;;;;;5140231;27;20487;-82
2023/01/12 10:23:18;;;;;;;18.95;2.78;;;11.00;99.90;;;;;;5139103;27;20046;-82
2023/01/12 10:25:49;;;;;;;20.40;3.22;;;11.00;99.90;;;;;;5121589;27;20039;-82
2023/01/12 10:28:22;;;;;;;20.90;3.45;;;11.00;99.90;;;;;;5136742;27;20285;-80
2023/01/12 10:30:49;;;;;;;15.07;2.50;;;11.00;99.90;;;;;;5142936;27;20043;-81
2023/01/12 10:33:20;;;;;;;17.00;2.40;;;11.10;99.90;;;;;;5139703;27;20377;-81
2023/01/12 10:35:53;;;;;;;18.10;3.85;;;11.10;99.90;;;;;;5142718;27;20076;-80
2023/01/12 10:38:22;;;;;;;16.35;2.80;;;11.10;99.90;;;;;;5126811;27;20394;-81
2023/01/12 10:41:19;;;;;;;20.10;2.55;;;11.10;99.90;;;;;;5141278;27;20043;-81
2023/01/12 10:44:04;;;;;;;15.57;3.08;;;11.10;99.90;;;;;;5137170;27;20064;-82
2023/01/12 10:46:32;;;;;;;15.77;2.00;;;11.10;99.90;;;;;;5109425;27;20301;-82
2023/01/12 10:49:22;;;;;;;17.17;2.95;;;11.10;99.90;;;;;;5140119;27;20070;-81
2023/01/12 10:51:53;;;;;;;21.13;2.38;;;11.10;99.90;;;;;;5119256;27;20096;-82
2023/01/12 10:54:24;;;;;;;16.63;2.67;;;11.10;99.90;;;;;;5121890;27;20038;-82
2023/01/12 10:57:21;;;;;;;14.15;2.47;;;11.10;99.90;;;;;;5130865;27;20035;-82
2023/01/12 10:59:56;;;;;;;20.67;2.75;;;11.10;99.90;;;;;;5127157;27;20051;-82
2023/01/12 11:02:25;;;;;;;13.88;2.15;;;11.10;99.90;;;;;;5121239;27;20065;-82
2023/01/12 11:04:52;;;;;;;15.43;3.10;;;11.10;99.90;;;;;;5138530;27;20031;-81
2023/01/12 11:07:27;;;;;;;12.52;2.65;;;11.20;99.90;;;;;;5136178;27;20031;-81
2023/01/12 11:09:56;;;;;;;17.60;2.35;;;11.20;99.90;;;;;;5143188;27;20111;-83
2023/01/12 11:12:30;;;;;;;14.07;2.75;;;11.20;99.90;;;;;;5101796;27;20172;-82
2023/01/12 11:15:11;;;;;;;16.02;2.25;;;11.20;99.90;;;;;;5137345;27;20064;-82
2023/01/12 11:18:04;;;;;;;17.80;2.25;;;11.20;99.90;;;;;;5103282;27;20095;-82
2023/01/12 11:21:00;;;;;;;15.13;2.65;;;11.20;99.90;;;;;;5114590;27;20035;-81
2023/01/12 11:24:03;;;;;;;13.88;2.47;;;11.30;99.90;;;;;;5137083;27;20118;-81
2023/01/12 11:26:41;;;;;;;11.10;2.17;;;11.30;99.90;;;;;;5108334;27;20039;-82
2023/01/12 11:29:42;;;;;;;14.88;1.83;;;11.30;99.90;;;;;;5142078;27;20044;-82
2023/01/12 11:32:23;;;;;;;17.52;2.53;;;11.40;99.90;;;;;;5112500;27;20131;-82
2023/01/12 11:35:15;;;;;;;16.45;2.58;;;11.40;99.90;;;;;;5139619;27;20034;-82
2023/01/12 11:37:41;;;;;;;12.30;2.30;;;11.40;99.90;;;;;;5140751;27;20035;-82
2023/01/12 11:40:32;;;;;;;16.92;2.30;;;11.40;99.90;;;;;;5122680;27;20039;-82
2023/01/12 11:46:04;;;;;;;14.00;2.60;;;11.50;99.90;;;;;;5126005;27;20042;-82
2023/01/12 11:48:42;;;;;;;17.50;2.80;;;11.50;99.90;;;;;;5125488;27;20051;-81
2023/01/12 11:51:10;;;;;;;18.33;2.58;;;11.50;99.90;;;;;;5129724;27;20054;-81
2023/01/12 11:53:35;;;;;;;11.55;2.53;;;11.60;99.90;;;;;;5117817;27;20156;-82
2023/01/12 11:56:26;;;;;;;15.40;2.33;;;11.60;99.90;;;;;;5141323;27;20044;-81
2023/01/12 11:59:08;;;;;;;15.75;2.00;;;12.00;99.90;;;;;;5105185;27;20512;-82
2023/01/12 12:02:00;;;;;;;14.27;2.13;;;11.80;99.90;;;;;;5099224;27;20044;-81
2023/01/12 12:04:47;;;;;;;15.93;2.35;;;11.80;99.90;;;;;;5094416;27;20031;-81
2023/01/12 12:07:18;;;;;;;19.65;2.72;;;11.90;99.90;;;;;;5111392;27;20522;-81
2023/01/12 12:10:14;;;;;;;12.15;1.92;;;11.80;99.90;;;;;;5118453;27;20406;-81
2023/01/12 12:13:07;;;;;;;12.77;2.00;;;11.80;99.90;;;;;;5112644;27;20536;-80
2023/01/12 12:15:53;;;;;;;13.10;2.92;;;11.80;99.90;;;;;;5133080;27;20062;-81
2023/01/12 12:18:40;;;;;;;14.55;2.67;;;11.80;99.90;;;;;;5137768;27;20158;-80
2023/01/12 12:21:39;;;;;;;12.60;2.10;;;11.80;99.90;;;;;;5117168;27;20378;-80
2023/01/12 12:24:37;;;;;;;14.27;2.50;;;11.80;99.90;;;;;;5125641;27;20098;-79
2023/01/12 12:27:23;;;;;;;13.30;2.58;;;11.80;99.90;;;;;;5126424;27;20081;-80
2023/01/12 12:30:04;;;;;;;13.73;2.67;;;11.70;99.90;;;;;;5132869;27;20043;-80
2023/01/12 12:32:43;;;;;;;23.17;2.38;;;11.70;99.90;;;;;;5118253;27;20034;-81
2023/01/12 12:35:23;;;;;;;15.43;1.67;;;11.60;99.90;;;;;;5128295;27;20039;-80
2023/01/12 12:37:59;;;;;;;14.02;2.58;;;11.60;99.90;;;;;;5125673;27;20035;-80
2023/01/12 12:47:23;;;;;;;15.48;2.45;;;11.60;99.90;;;;;;5134556;27;20047;-80
2023/01/12 12:49:53;;;;;;;18.35;2.13;;;11.70;99.90;;;;;;5002990;28;20069;-80
2023/01/12 12:52:20;;;;;;;16.90;2.45;;;12.00;99.90;;;;;;5003269;28;20485;-81
2023/01/12 12:54:47;;;;;;;15.25;2.67;;;11.50;99.90;;;;;;5020513;28;20116;-80
2023/01/12 12:57:13;;;;;;;22.02;2.45;;;11.50;99.90;;;;;;5003810;28;20069;-80
2023/01/12 12:59:50;;;;;;;16.95;2.88;;;11.50;99.90;;;;;;5022825;28;20496;-80
2023/01/12 13:02:37;;;;;;;10.60;1.80;;;11.50;99.90;;;;;;5021750;28;20538;-81
2023/01/12 13:05:05;;;;;;;15.75;2.78;;;11.50;99.90;;;;;;4999328;28;20093;-80
2023/01/12 13:07:35;;;;;;;14.68;2.30;;;11.50;99.90;;;;;;5022240;28;20392;-81
2023/01/12 13:10:17;;;;;;;16.05;2.60;;;11.50;99.90;;;;;;5002852;28;20042;-81
2023/01/12 13:12:43;;;;;;;16.73;2.20;;;11.50;99.90;;;;;;5021789;28;20053;-84
2023/01/12 13:15:22;;;;;;;15.18;2.13;;;11.50;99.90;;;;;;5019860;28;20044;-82
2023/01/12 13:17:51;;;;;;;11.50;1.95;;;11.40;99.90;;;;;;5006923;28;20049;-82
2023/01/12 13:20:17;;;;;;;13.65;2.08;;;11.80;99.90;;;;;;5007354;28;20069;-82
2023/01/12 13:22:44;;;;;;;11.13;2.30;;;11.40;99.90;;;;;;5005619;28;20208;-82
2023/01/12 13:25:19;;;;;;;19.02;2.95;;;11.40;99.90;;;;;;5079728;27;20042;-83
2023/01/12 13:28:00;;;;;;;17.40;3.28;;;11.40;99.90;;;;;;5128742;27;20040;-83
2023/01/12 13:30:25;;;;;;;15.60;2.53;;;11.40;99.90;;;;;;5105096;28;20039;-82
2023/01/12 13:33:12;;;;;;;18.17;2.85;;;11.40;99.90;;;;;;5119943;27;20087;-82
2023/01/12 13:35:39;;;;;;;20.08;4.35;;;11.40;99.90;;;;;;5105531;27;20969;-82
2023/01/12 13:38:32;;;;;;;17.98;3.08;;;11.40;99.90;;;;;;5103985;28;20061;-82
2023/01/12 13:43:13;;;;;;;16.83;4.13;;;11.40;99.90;;;;;;5123542;27;20053;-82
2023/01/12 13:44:06;;;;;;;20.38;4.72;;;11.40;99.90;;;;;;5128015;27;20047;-82
2023/01/12 13:46:45;;;;;;;18.33;2.97;;;11.40;99.90;;;;;;5123029;27;20447;-82
2023/01/12 13:49:30;;;;;;;16.13;2.90;;;11.40;99.90;;;;;;5109932;27;20043;-81